sensor_id;sensor_type;location;lat;lon;timestamp;P1;durP1;ratioP1;P2;durP2;ratioP2
39442;SDS011;25147;52.142;9.960;2023-06-10T00:02:08;8.48;;;5.70;;
39442;SDS011;25147;52.142;9.960;2023-06-10T00:04:35;6.47;;;4.72;;
39442;SDS011;25147;52.142;9.960;2023-06-10T00:07:03;7.20;;;4.03;;
39442;SDS011;25147;52.142;9.960;2023-06-10T00:09:33;5.95;;;4.00;;
39442;SDS011;25147;52.142;9.960;2023-06-10T00:12:01;6.50;;;3.85;;
39442;SDS011;25147;52.142;9.960;2023-06-10T00:14:30;7.22;;;4.43;;
39442;SDS011;25147;52.142;9.960;2023-06-10T00:16:57;5.78;;;3.97;;
39442;SDS011;25147;52.142;9.960;2023-06-10T00:19:24;5.45;;;4.80;;
39442;SDS011;25147;52.142;9.960;2023-06-10T00:21:55;8.65;;;4.88;;
39442;SDS011;25147;52.142;9.960;2023-06-10T00:24:23;8.73;;;4.80;;
39442;SDS011;25147;52.142;9.960;2023-06-10T00:26:50;5.35;;;4.43;;
39442;SDS011;25147;52.142;9.960;2023-06-10T00:29:17;5.40;;;4.20;;
39442;SDS011;25147;52.142;9.960;2023-06-10T00:31:46;5.90;;;4.45;;
39442;SDS011;25147;52.142;9.960;2023-06-10T00:34:16;8.95;;;4.63;;
39442;SDS011;25147;52.142;9.960;2023-06-10T00:36:42;8.30;;;5.07;;
39442;SDS011;25147;52.142;9.960;2023-06-10T00:39:09;8.32;;;4.75;;
39442;SDS011;25147;52.142;9.960;2023-06-10T00:41:36;4.50;;;4.10;;
39442;SDS011;25147;52.142;9.960;2023-06-10T00:44:03;5.32;;;4.32;;
39442;SDS011;25147;52.142;9.960;2023-06-10T00:46:30;8.27;;;5.13;;
39442;SDS011;25147;52.142;9.960;2023-06-10T00:49:00;5.35;;;4.65;;
39442;SDS011;25147;52.142;9.960;2023-06-10T00:51:27;7.72;;;5.07;;
39442;SDS011;25147;52.142;9.960;2023-06-10T00:53:54;7.55;;;4.60;;
39442;SDS011;25147;52.142;9.960;2023-06-10T00:56:21;7.78;;;5.28;;
39442;SDS011;25147;52.142;9.960;2023-06-10T00:58:48;6.13;;;5.40;;
39442;SDS011;25147;52.142;9.960;2023-06-10T01:01:16;8.05;;;5.93;;
39442;SDS011;25147;52.142;9.960;2023-06-10T01:03:43;9.18;;;6.28;;
39442;SDS011;25147;52.142;9.960;2023-06-10T01:06:13;7.85;;;6.53;;
39442;SDS011;25147;52.142;9.960;2023-06-10T01:08:50;9.18;;;6.00;;
39442;SDS011;25147;52.142;9.960;2023-06-10T01:11:25;7.35;;;6.25;;
39442;SDS011;25147;52.142;9.960;2023-06-10T01:13:56;8.75;;;6.18;;
39442;SDS011;25147;52.142;9.960;2023-06-10T01:16:24;9.40;;;6.22;;
39442;SDS011;25147;52.142;9.960;2023-06-10T01:18:52;10.10;;;6.22;;
39442;SDS011;25147;52.142;9.960;2023-06-10T01:21:21;6.88;;;4.95;;
39442;SDS011;25147;52.142;9.960;2023-06-10T01:23:49;7.78;;;5.70;;
39442;SDS011;25147;52.142;9.960;2023-06-10T01:26:20;7.63;;;5.45;;
39442;SDS011;25147;52.142;9.960;2023-06-10T01:28:51;7.97;;;5.43;;
39442;SDS011;25147;52.142;9.960;2023-06-10T01:31:30;7.50;;;5.25;;
39442;SDS011;25147;52.142;9.960;2023-06-10T01:34:01;6.35;;;4.90;;
39442;SDS011;25147;52.142;9.960;2023-06-10T01:36:35;7.72;;;5.30;;
39442;SDS011;25147;52.142;9.960;2023-06-10T01:39:04;5.30;;;4.65;;
39442;SDS011;25147;52.142;9.960;2023-06-10T01:41:32;5.95;;;4.90;;
39442;SDS011;25147;52.142;9.960;2023-06-10T01:43:59;7.40;;;4.97;;
39442;SDS011;25147;52.142;9.960;2023-06-10T01:46:26;8.02;;;4.65;;
39442;SDS011;25147;52.142;9.960;2023-06-10T01:48:53;9.45;;;4.80;;
39442;SDS011;25147;52.142;9.960;2023-06-10T01:51:19;8.40;;;4.68;;
39442;SDS011;25147;52.142;9.960;2023-06-10T01:53:47;9.77;;;5.05;;
39442;SDS011;25147;52.142;9.960;2023-06-10T01:56:14;5.63;;;4.47;;
39442;SDS011;25147;52.142;9.960;2023-06-10T01:58:44;7.07;;;4.90;;
39442;SDS011;25147;52.142;9.960;2023-06-10T02:01:11;5.60;;;4.47;;
39442;SDS011;25147;52.142;9.960;2023-06-10T02:03:38;6.43;;;4.70;;
39442;SDS011;25147;52.142;9.960;2023-06-10T02:06:04;5.18;;;4.43;;
39442;SDS011;25147;52.142;9.960;2023-06-10T02:08:31;6.82;;;5.07;;
39442;SDS011;25147;52.142;9.960;2023-06-10T02:10:59;5.85;;;4.68;;
39442;SDS011;25147;52.142;9.960;2023-06-10T02:13:26;5.75;;;4.93;;
39442;SDS011;25147;52.142;9.960;2023-06-10T02:15:52;8.48;;;4.70;;
39442;SDS011;25147;52.142;9.960;2023-06-10T02:18:20;7.03;;;4.93;;
39442;SDS011;25147;52.142;9.960;2023-06-10T02:20:47;6.50;;;4.43;;
39442;SDS011;25147;52.142;9.960;2023-06-10T02:23:14;5.30;;;4.55;;
39442;SDS011;25147;52.142;9.960;2023-06-10T02:25:41;6.93;;;4.85;;
39442;SDS011;25147;52.142;9.960;2023-06-10T02:28:09;8.60;;;4.72;;
39442;SDS011;25147;52.142;9.960;2023-06-10T02:30:36;9.07;;;5.43;;
39442;SDS011;25147;52.142;9.960;2023-06-10T02:33:05;6.88;;;4.72;;
39442;SDS011;25147;52.142;9.960;2023-06-10T02:35:35;9.73;;;4.55;;
39442;SDS011;25147;52.142;9.960;2023-06-10T02:38:02;7.45;;;4.72;;
39442;SDS011;25147;52.142;9.960;2023-06-10T02:40:29;8.30;;;4.85;;
39442;SDS011;25147;52.142;9.960;2023-06-10T02:42:56;5.97;;;4.80;;
39442;SDS011;25147;52.142;9.960;2023-06-10T02:45:25;9.05;;;4.88;;
39442;SDS011;25147;52.142;9.960;2023-06-10T02:47:52;7.22;;;4.43;;
39442;SDS011;25147;52.142;9.960;2023-06-10T02:50:18;6.82;;;5.05;;
39442;SDS011;25147;52.142;9.960;2023-06-10T02:52:45;6.82;;;4.72;;
39442;SDS011;25147;52.142;9.960;2023-06-10T02:55:12;9.15;;;5.45;;
39442;SDS011;25147;52.142;9.960;2023-06-10T02:57:38;6.97;;;4.72;;
39442;SDS011;25147;52.142;9.960;2023-06-10T03:00:06;11.52;;;5.32;;
39442;SDS011;25147;52.142;9.960;2023-06-10T03:02:38;9.18;;;5.07;;
39442;SDS011;25147;52.142;9.960;2023-06-10T03:05:05;7.28;;;4.82;;
39442;SDS011;25147;52.142;9.960;2023-06-10T03:07:35;7.97;;;5.40;;
39442;SDS011;25147;52.142;9.960;2023-06-10T03:10:02;7.15;;;4.75;;
39442;SDS011;25147;52.142;9.960;2023-06-10T03:12:30;12.52;;;5.43;;
39442;SDS011;25147;52.142;9.960;2023-06-10T03:14:57;7.05;;;5.30;;
39442;SDS011;25147;52.142;9.960;2023-06-10T03:17:23;8.60;;;5.18;;
39442;SDS011;25147;52.142;9.960;2023-06-10T03:19:52;7.75;;;5.45;;
39442;SDS011;25147;52.142;9.960;2023-06-10T03:22:19;7.57;;;5.53;;
39442;SDS011;25147;52.142;9.960;2023-06-10T03:24:46;7.07;;;4.95;;
39442;SDS011;25147;52.142;9.960;2023-06-10T03:27:15;8.88;;;5.18;;
39442;SDS011;25147;52.142;9.960;2023-06-10T03:29:42;10.80;;;5.80;;
39442;SDS011;25147;52.142;9.960;2023-06-10T03:32:09;8.02;;;5.20;;
39442;SDS011;25147;52.142;9.960;2023-06-10T03:34:36;8.63;;;5.78;;
39442;SDS011;25147;52.142;9.960;2023-06-10T03:37:05;9.48;;;6.30;;
39442;SDS011;25147;52.142;9.960;2023-06-10T03:39:32;6.88;;;5.45;;
39442;SDS011;25147;52.142;9.960;2023-06-10T03:41:59;8.32;;;6.20;;
39442;SDS011;25147;52.142;9.960;2023-06-10T03:44:26;13.13;;;6.20;;
39442;SDS011;25147;52.142;9.960;2023-06-10T03:46:53;8.50;;;5.60;;
39442;SDS011;25147;52.142;9.960;2023-06-10T03:49:20;8.20;;;5.38;;
39442;SDS011;25147;52.142;9.960;2023-06-10T03:51:52;9.13;;;5.38;;
39442;SDS011;25147;52.142;9.960;2023-06-10T03:54:20;7.90;;;5.45;;
39442;SDS011;25147;52.142;9.960;2023-06-10T03:56:47;10.13;;;5.60;;
39442;SDS011;25147;52.142;9.960;2023-06-10T03:59:14;9.95;;;5.65;;
39442;SDS011;25147;52.142;9.960;2023-06-10T04:01:41;10.73;;;5.82;;
39442;SDS011;25147;52.142;9.960;2023-06-10T04:04:08;7.30;;;5.68;;
39442;SDS011;25147;52.142;9.960;2023-06-10T04:06:35;8.10;;;5.82;;
39442;SDS011;25147;52.142;9.960;2023-06-10T04:09:03;12.02;;;6.22;;
39442;SDS011;25147;52.142;9.960;2023-06-10T04:11:32;9.48;;;5.75;;
39442;SDS011;25147;52.142;9.960;2023-06-10T04:13:59;9.73;;;5.32;;
39442;SDS011;25147;52.142;9.960;2023-06-10T04:16:26;9.65;;;6.28;;
39442;SDS011;25147;52.142;9.960;2023-06-10T04:18:53;12.43;;;6.50;;
39442;SDS011;25147;52.142;9.960;2023-06-10T04:21:20;8.02;;;5.43;;
39442;SDS011;25147;52.142;9.960;2023-06-10T04:23:47;10.73;;;5.82;;
39442;SDS011;25147;52.142;9.960;2023-06-10T04:26:14;8.15;;;5.88;;
39442;SDS011;25147;52.142;9.960;2023-06-10T04:28:43;8.77;;;5.90;;
39442;SDS011;25147;52.142;9.960;2023-06-10T04:31:10;10.60;;;5.95;;
39442;SDS011;25147;52.142;9.960;2023-06-10T04:33:37;11.32;;;6.22;;
39442;SDS011;25147;52.142;9.960;2023-06-10T04:36:04;15.50;;;7.25;;
39442;SDS011;25147;52.142;9.960;2023-06-10T04:38:35;9.57;;;6.43;;
39442;SDS011;25147;52.142;9.960;2023-06-10T04:41:02;12.30;;;6.45;;
39442;SDS011;25147;52.142;9.960;2023-06-10T04:43:28;9.15;;;6.38;;
39442;SDS011;25147;52.142;9.960;2023-06-10T04:45:57;12.65;;;6.47;;
39442;SDS011;25147;52.142;9.960;2023-06-10T04:48:24;8.82;;;5.97;;
39442;SDS011;25147;52.142;9.960;2023-06-10T04:50:51;10.10;;;6.00;;
39442;SDS011;25147;52.142;9.960;2023-06-10T04:53:18;7.90;;;6.32;;
39442;SDS011;25147;52.142;9.960;2023-06-10T04:55:46;8.70;;;6.18;;
39442;SDS011;25147;52.142;9.960;2023-06-10T04:58:13;10.75;;;6.72;;
39442;SDS011;25147;52.142;9.960;2023-06-10T05:00:45;11.07;;;6.47;;
39442;SDS011;25147;52.142;9.960;2023-06-10T05:03:13;8.63;;;6.72;;
39442;SDS011;25147;52.142;9.960;2023-06-10T05:05:40;11.57;;;6.57;;
39442;SDS011;25147;52.142;9.960;2023-06-10T05:08:07;8.13;;;6.15;;
39442;SDS011;25147;52.142;9.960;2023-06-10T05:10:34;9.95;;;6.20;;
39442;SDS011;25147;52.142;9.960;2023-06-10T05:13:01;11.38;;;7.03;;
39442;SDS011;25147;52.142;9.960;2023-06-10T05:15:28;13.60;;;7.13;;
39442;SDS011;25147;52.142;9.960;2023-06-10T05:17:56;11.65;;;7.38;;
39442;SDS011;25147;52.142;9.960;2023-06-10T05:20:25;9.60;;;6.70;;
39442;SDS011;25147;52.142;9.960;2023-06-10T05:22:51;11.75;;;7.15;;
39442;SDS011;25147;52.142;9.960;2023-06-10T05:25:19;13.00;;;7.90;;
39442;SDS011;25147;52.142;9.960;2023-06-10T05:27:45;11.85;;;8.02;;
39442;SDS011;25147;52.142;9.960;2023-06-10T05:30:12;14.20;;;7.60;;
39442;SDS011;25147;52.142;9.960;2023-06-10T05:32:39;13.02;;;8.27;;
39442;SDS011;25147;52.142;9.960;2023-06-10T05:35:06;11.65;;;8.07;;
39442;SDS011;25147;52.142;9.960;2023-06-10T05:37:35;12.85;;;7.35;;
39442;SDS011;25147;52.142;9.960;2023-06-10T05:40:02;13.93;;;7.88;;
39442;SDS011;25147;52.142;9.960;2023-06-10T05:42:30;13.25;;;9.27;;
39442;SDS011;25147;52.142;9.960;2023-06-10T05:44:57;15.15;;;11.57;;
39442;SDS011;25147;52.142;9.960;2023-06-10T05:47:24;14.80;;;13.05;;
39442;SDS011;25147;52.142;9.960;2023-06-10T05:49:51;15.50;;;11.60;;
39442;SDS011;25147;52.142;9.960;2023-06-10T05:52:18;12.95;;;11.52;;
39442;SDS011;25147;52.142;9.960;2023-06-10T05:54:46;13.55;;;11.80;;
39442;SDS011;25147;52.142;9.960;2023-06-10T05:57:13;16.38;;;12.75;;
39442;SDS011;25147;52.142;9.960;2023-06-10T05:59:39;15.18;;;13.50;;
39442;SDS011;25147;52.142;9.960;2023-06-10T06:02:06;17.25;;;14.73;;
39442;SDS011;25147;52.142;9.960;2023-06-10T06:04:33;18.63;;;15.85;;
39442;SDS011;25147;52.142;9.960;2023-06-10T06:07:00;20.20;;;16.38;;
39442;SDS011;25147;52.142;9.960;2023-06-10T06:09:27;18.77;;;14.52;;
39442;SDS011;25147;52.142;9.960;2023-06-10T06:11:55;18.50;;;14.93;;
39442;SDS011;25147;52.142;9.960;2023-06-10T06:14:22;20.88;;;13.60;;
39442;SDS011;25147;52.142;9.960;2023-06-10T06:16:49;20.67;;;16.55;;
39442;SDS011;25147;52.142;9.960;2023-06-10T06:19:16;20.73;;;18.50;;
39442;SDS011;25147;52.142;9.960;2023-06-10T06:21:42;22.10;;;18.73;;
39442;SDS011;25147;52.142;9.960;2023-06-10T06:24:09;23.40;;;18.38;;
39442;SDS011;25147;52.142;9.960;2023-06-10T06:26:36;24.60;;;21.95;;
39442;SDS011;25147;52.142;9.960;2023-06-10T06:29:04;26.23;;;23.08;;
39442;SDS011;25147;52.142;9.960;2023-06-10T06:31:31;23.50;;;19.98;;
39442;SDS011;25147;52.142;9.960;2023-06-10T06:33:58;26.08;;;20.33;;
39442;SDS011;25147;52.142;9.960;2023-06-10T06:36:25;29.80;;;23.05;;
39442;SDS011;25147;52.142;9.960;2023-06-10T06:38:51;25.17;;;20.95;;
39442;SDS011;25147;52.142;9.960;2023-06-10T06:41:18;25.02;;;21.05;;
39442;SDS011;25147;52.142;9.960;2023-06-10T06:43:45;25.98;;;20.00;;
39442;SDS011;25147;52.142;9.960;2023-06-10T06:46:14;25.50;;;22.88;;
39442;SDS011;25147;52.142;9.960;2023-06-10T06:48:41;27.55;;;23.15;;
39442;SDS011;25147;52.142;9.960;2023-06-10T06:51:08;24.75;;;22.20;;
39442;SDS011;25147;52.142;9.960;2023-06-10T06:53:34;24.02;;;21.15;;
39442;SDS011;25147;52.142;9.960;2023-06-10T06:56:02;24.15;;;21.75;;
39442;SDS011;25147;52.142;9.960;2023-06-10T06:58:29;28.05;;;25.08;;
39442;SDS011;25147;52.142;9.960;2023-06-10T07:00:55;25.80;;;23.25;;
39442;SDS011;25147;52.142;9.960;2023-06-10T07:03:23;26.70;;;24.00;;
39442;SDS011;25147;52.142;9.960;2023-06-10T07:05:52;26.20;;;23.50;;
39442;SDS011;25147;52.142;9.960;2023-06-10T07:08:18;25.45;;;20.60;;
39442;SDS011;25147;52.142;9.960;2023-06-10T07:10:45;22.25;;;20.02;;
39442;SDS011;25147;52.142;9.960;2023-06-10T07:13:12;24.65;;;21.15;;
39442;SDS011;25147;52.142;9.960;2023-06-10T07:15:38;21.42;;;18.58;;
39442;SDS011;25147;52.142;9.960;2023-06-10T07:18:05;20.00;;;17.13;;
39442;SDS011;25147;52.142;9.960;2023-06-10T07:20:33;18.33;;;16.25;;
39442;SDS011;25147;52.142;9.960;2023-06-10T07:23:00;16.27;;;14.52;;
39442;SDS011;25147;52.142;9.960;2023-06-10T07:25:27;19.35;;;14.32;;
39442;SDS011;25147;52.142;9.960;2023-06-10T07:27:54;12.93;;;11.73;;
39442;SDS011;25147;52.142;9.960;2023-06-10T07:30:20;12.93;;;11.50;;
39442;SDS011;25147;52.142;9.960;2023-06-10T07:32:47;15.25;;;12.32;;
39442;SDS011;25147;52.142;9.960;2023-06-10T07:35:14;14.65;;;11.48;;
39442;SDS011;25147;52.142;9.960;2023-06-10T07:37:42;14.70;;;10.27;;
39442;SDS011;25147;52.142;9.960;2023-06-10T07:40:09;12.52;;;9.90;;
39442;SDS011;25147;52.142;9.960;2023-06-10T07:42:37;12.85;;;10.35;;
39442;SDS011;25147;52.142;9.960;2023-06-10T07:45:04;13.60;;;10.52;;
39442;SDS011;25147;52.142;9.960;2023-06-10T07:47:32;12.20;;;10.43;;
39442;SDS011;25147;52.142;9.960;2023-06-10T07:50:00;11.77;;;9.70;;
39442;SDS011;25147;52.142;9.960;2023-06-10T07:52:27;10.93;;;8.88;;
39442;SDS011;25147;52.142;9.960;2023-06-10T07:54:55;12.85;;;8.80;;
39442;SDS011;25147;52.142;9.960;2023-06-10T07:57:22;14.88;;;9.45;;
39442;SDS011;25147;52.142;9.960;2023-06-10T07:59:50;12.02;;;9.00;;
39442;SDS011;25147;52.142;9.960;2023-06-10T08:02:17;10.88;;;8.52;;
39442;SDS011;25147;52.142;9.960;2023-06-10T08:04:48;12.57;;;8.65;;
39442;SDS011;25147;52.142;9.960;2023-06-10T08:07:16;11.95;;;8.40;;
39442;SDS011;25147;52.142;9.960;2023-06-10T08:09:44;10.52;;;7.78;;
39442;SDS011;25147;52.142;9.960;2023-06-10T08:12:12;15.23;;;8.63;;
39442;SDS011;25147;52.142;9.960;2023-06-10T08:14:40;11.13;;;8.25;;
39442;SDS011;25147;52.142;9.960;2023-06-10T08:17:07;10.32;;;7.70;;
39442;SDS011;25147;52.142;9.960;2023-06-10T08:19:33;8.88;;;7.75;;
39442;SDS011;25147;52.142;9.960;2023-06-10T08:22:00;7.85;;;7.05;;
39442;SDS011;25147;52.142;9.960;2023-06-10T08:24:27;10.65;;;8.27;;
39442;SDS011;25147;52.142;9.960;2023-06-10T08:26:54;9.75;;;7.30;;
39442;SDS011;25147;52.142;9.960;2023-06-10T08:29:23;7.85;;;6.75;;
39442;SDS011;25147;52.142;9.960;2023-06-10T08:31:50;12.13;;;7.38;;
39442;SDS011;25147;52.142;9.960;2023-06-10T08:34:17;9.93;;;7.30;;
39442;SDS011;25147;52.142;9.960;2023-06-10T08:36:44;13.48;;;7.78;;
39442;SDS011;25147;52.142;9.960;2023-06-10T08:39:11;8.93;;;6.70;;
39442;SDS011;25147;52.142;9.960;2023-06-10T08:41:43;10.88;;;7.57;;
39442;SDS011;25147;52.142;9.960;2023-06-10T08:44:16;11.73;;;7.78;;
39442;SDS011;25147;52.142;9.960;2023-06-10T08:46:46;10.75;;;7.72;;
39442;SDS011;25147;52.142;9.960;2023-06-10T08:49:17;16.50;;;7.80;;
39442;SDS011;25147;52.142;9.960;2023-06-10T08:51:47;10.43;;;7.57;;
39442;SDS011;25147;52.142;9.960;2023-06-10T08:54:17;10.20;;;7.28;;
39442;SDS011;25147;52.142;9.960;2023-06-10T08:56:51;9.77;;;7.35;;
39442;SDS011;25147;52.142;9.960;2023-06-10T08:59:24;10.60;;;7.63;;
39442;SDS011;25147;52.142;9.960;2023-06-10T09:01:53;9.25;;;7.00;;
39442;SDS011;25147;52.142;9.960;2023-06-10T09:04:24;12.35;;;7.18;;
39442;SDS011;25147;52.142;9.960;2023-06-10T09:06:52;10.65;;;7.00;;
39442;SDS011;25147;52.142;9.960;2023-06-10T09:09:20;10.50;;;8.75;;
39442;SDS011;25147;52.142;9.960;2023-06-10T09:11:50;11.57;;;7.03;;
39442;SDS011;25147;52.142;9.960;2023-06-10T09:14:17;11.80;;;6.93;;
39442;SDS011;25147;52.142;9.960;2023-06-10T09:16:44;9.70;;;7.82;;
39442;SDS011;25147;52.142;9.960;2023-06-10T09:19:15;9.57;;;6.85;;
39442;SDS011;25147;52.142;9.960;2023-06-10T09:21:42;11.30;;;7.35;;
39442;SDS011;25147;52.142;9.960;2023-06-10T09:24:09;9.10;;;7.07;;
39442;SDS011;25147;52.142;9.960;2023-06-10T09:26:36;8.00;;;6.82;;
39442;SDS011;25147;52.142;9.960;2023-06-10T09:29:04;10.70;;;6.88;;
39442;SDS011;25147;52.142;9.960;2023-06-10T09:31:32;13.73;;;7.25;;
39442;SDS011;25147;52.142;9.960;2023-06-10T09:34:08;8.50;;;6.70;;
39442;SDS011;25147;52.142;9.960;2023-06-10T09:36:37;8.68;;;7.20;;
39442;SDS011;25147;52.142;9.960;2023-06-10T09:39:05;8.82;;;6.68;;
39442;SDS011;25147;52.142;9.960;2023-06-10T09:41:41;13.43;;;6.68;;
39442;SDS011;25147;52.142;9.960;2023-06-10T09:44:11;11.27;;;7.82;;
39442;SDS011;25147;52.142;9.960;2023-06-10T09:46:40;8.75;;;7.40;;
39442;SDS011;25147;52.142;9.960;2023-06-10T09:49:07;13.18;;;7.22;;
39442;SDS011;25147;52.142;9.960;2023-06-10T09:51:34;10.10;;;7.15;;
39442;SDS011;25147;52.142;9.960;2023-06-10T09:54:03;11.68;;;7.30;;
39442;SDS011;25147;52.142;9.960;2023-06-10T09:56:33;9.80;;;7.32;;
39442;SDS011;25147;52.142;9.960;2023-06-10T09:59:01;11.63;;;7.28;;
39442;SDS011;25147;52.142;9.960;2023-06-10T10:01:30;9.00;;;7.03;;
39442;SDS011;25147;52.142;9.960;2023-06-10T10:03:58;10.55;;;7.43;;
39442;SDS011;25147;52.142;9.960;2023-06-10T10:06:26;11.93;;;7.43;;
39442;SDS011;25147;52.142;9.960;2023-06-10T10:08:54;10.85;;;7.03;;
39442;SDS011;25147;52.142;9.960;2023-06-10T10:11:22;10.50;;;7.18;;
39442;SDS011;25147;52.142;9.960;2023-06-10T10:13:52;8.48;;;6.80;;
39442;SDS011;25147;52.142;9.960;2023-06-10T10:16:20;9.90;;;6.90;;
39442;SDS011;25147;52.142;9.960;2023-06-10T10:18:52;8.20;;;6.90;;
39442;SDS011;25147;52.142;9.960;2023-06-10T10:21:22;13.30;;;6.80;;
39442;SDS011;25147;52.142;9.960;2023-06-10T10:23:53;12.02;;;6.78;;
39442;SDS011;25147;52.142;9.960;2023-06-10T10:26:24;10.20;;;6.80;;
39442;SDS011;25147;52.142;9.960;2023-06-10T10:28:55;10.10;;;7.15;;
39442;SDS011;25147;52.142;9.960;2023-06-10T10:31:36;10.50;;;7.50;;
39442;SDS011;25147;52.142;9.960;2023-06-10T10:34:06;10.90;;;6.85;;
39442;SDS011;25147;52.142;9.960;2023-06-10T10:36:35;11.60;;;7.30;;
39442;SDS011;25147;52.142;9.960;2023-06-10T10:39:04;13.40;;;6.88;;
39442;SDS011;25147;52.142;9.960;2023-06-10T10:41:35;9.02;;;7.05;;
39442;SDS011;25147;52.142;9.960;2023-06-10T10:44:05;8.85;;;6.78;;
39442;SDS011;25147;52.142;9.960;2023-06-10T10:46:41;10.35;;;6.70;;
39442;SDS011;25147;52.142;9.960;2023-06-10T10:49:09;14.70;;;7.32;;
39442;SDS011;25147;52.142;9.960;2023-06-10T10:51:38;10.05;;;6.22;;
39442;SDS011;25147;52.142;9.960;2023-06-10T10:54:27;9.73;;;6.55;;
39442;SDS011;25147;52.142;9.960;2023-06-10T10:57:14;7.90;;;6.32;;
39442;SDS011;25147;52.142;9.960;2023-06-10T10:59:43;10.27;;;6.43;;
39442;SDS011;25147;52.142;9.960;2023-06-10T11:02:17;10.02;;;7.18;;
39442;SDS011;25147;52.142;9.960;2023-06-10T11:04:46;9.30;;;6.82;;
39442;SDS011;25147;52.142;9.960;2023-06-10T11:07:14;8.85;;;6.30;;
39442;SDS011;25147;52.142;9.960;2023-06-10T11:09:59;8.18;;;6.50;;
39442;SDS011;25147;52.142;9.960;2023-06-10T11:12:42;7.63;;;6.45;;
39442;SDS011;25147;52.142;9.960;2023-06-10T11:15:22;10.82;;;6.53;;
39442;SDS011;25147;52.142;9.960;2023-06-10T11:20:45;9.60;;;6.43;;
39442;SDS011;25147;52.142;9.960;2023-06-10T11:23:39;10.00;;;7.03;;
39442;SDS011;25147;52.142;9.960;2023-06-10T11:26:29;9.75;;;6.78;;
39442;SDS011;25147;52.142;9.960;2023-06-10T11:29:02;9.05;;;6.03;;
39442;SDS011;25147;52.142;9.960;2023-06-10T11:31:31;9.55;;;7.05;;
39442;SDS011;25147;52.142;9.960;2023-06-10T11:34:02;9.60;;;6.82;;
39442;SDS011;25147;52.142;9.960;2023-06-10T11:36:30;9.27;;;6.70;;
39442;SDS011;25147;52.142;9.960;2023-06-10T11:38:59;7.75;;;6.85;;
39442;SDS011;25147;52.142;9.960;2023-06-10T11:41:27;9.88;;;6.63;;
39442;SDS011;25147;52.142;9.960;2023-06-10T11:43:54;7.57;;;6.35;;
39442;SDS011;25147;52.142;9.960;2023-06-10T11:46:23;8.10;;;6.80;;
39442;SDS011;25147;52.142;9.960;2023-06-10T11:48:53;9.52;;;6.43;;
39442;SDS011;25147;52.142;9.960;2023-06-10T11:51:21;9.13;;;6.65;;
39442;SDS011;25147;52.142;9.960;2023-06-10T11:53:52;8.63;;;6.55;;
39442;SDS011;25147;52.142;9.960;2023-06-10T11:56:20;10.27;;;6.97;;
39442;SDS011;25147;52.142;9.960;2023-06-10T11:58:51;9.38;;;6.57;;
39442;SDS011;25147;52.142;9.960;2023-06-10T12:01:20;7.97;;;6.03;;
39442;SDS011;25147;52.142;9.960;2023-06-10T12:03:53;9.65;;;6.72;;
39442;SDS011;25147;52.142;9.960;2023-06-10T12:06:25;7.50;;;6.35;;
39442;SDS011;25147;52.142;9.960;2023-06-10T12:08:53;9.65;;;6.80;;
39442;SDS011;25147;52.142;9.960;2023-06-10T12:11:21;8.05;;;7.10;;
39442;SDS011;25147;52.142;9.960;2023-06-10T12:13:48;7.70;;;6.93;;
39442;SDS011;25147;52.142;9.960;2023-06-10T12:16:16;8.25;;;7.07;;
39442;SDS011;25147;52.142;9.960;2023-06-10T12:18:44;8.90;;;7.20;;
39442;SDS011;25147;52.142;9.960;2023-06-10T12:21:19;11.40;;;7.82;;
39442;SDS011;25147;52.142;9.960;2023-06-10T12:24:02;8.57;;;7.65;;
39442;SDS011;25147;52.142;9.960;2023-06-10T12:26:37;7.85;;;7.05;;
39442;SDS011;25147;52.142;9.960;2023-06-10T12:29:21;8.35;;;7.25;;
39442;SDS011;25147;52.142;9.960;2023-06-10T12:31:57;8.60;;;7.00;;
39442;SDS011;25147;52.142;9.960;2023-06-10T12:34:29;7.72;;;7.03;;
39442;SDS011;25147;52.142;9.960;2023-06-10T12:37:02;8.10;;;7.05;;
39442;SDS011;25147;52.142;9.960;2023-06-10T12:39:31;7.68;;;6.95;;
39442;SDS011;25147;52.142;9.960;2023-06-10T12:41:59;8.13;;;7.40;;
39442;SDS011;25147;52.142;9.960;2023-06-10T12:44:28;9.15;;;7.07;;
39442;SDS011;25147;52.142;9.960;2023-06-10T12:46:59;11.60;;;6.97;;
39442;SDS011;25147;52.142;9.960;2023-06-10T12:49:26;8.68;;;6.63;;
39442;SDS011;25147;52.142;9.960;2023-06-10T12:51:53;8.52;;;7.10;;
39442;SDS011;25147;52.142;9.960;2023-06-10T12:54:22;9.00;;;7.30;;
39442;SDS011;25147;52.142;9.960;2023-06-10T12:56:49;8.18;;;7.05;;
39442;SDS011;25147;52.142;9.960;2023-06-10T12:59:16;7.68;;;6.43;;
39442;SDS011;25147;52.142;9.960;2023-06-10T13:01:43;8.00;;;7.25;;
39442;SDS011;25147;52.142;9.960;2023-06-10T13:04:10;8.20;;;7.28;;
39442;SDS011;25147;52.142;9.960;2023-06-10T13:06:40;8.13;;;7.28;;
39442;SDS011;25147;52.142;9.960;2023-06-10T13:09:07;7.20;;;6.47;;
39442;SDS011;25147;52.142;9.960;2023-06-10T13:11:36;8.18;;;7.38;;
39442;SDS011;25147;52.142;9.960;2023-06-10T13:14:03;7.55;;;6.35;;
39442;SDS011;25147;52.142;9.960;2023-06-10T13:16:31;8.68;;;6.70;;
39442;SDS011;25147;52.142;9.960;2023-06-10T13:19:06;8.32;;;7.13;;
39442;SDS011;25147;52.142;9.960;2023-06-10T13:21:33;9.18;;;7.22;;
39442;SDS011;25147;52.142;9.960;2023-06-10T13:24:00;7.90;;;7.10;;
39442;SDS011;25147;52.142;9.960;2023-06-10T13:26:28;7.40;;;6.70;;
39442;SDS011;25147;52.142;9.960;2023-06-10T13:28:56;7.35;;;6.65;;
39442;SDS011;25147;52.142;9.960;2023-06-10T13:31:23;9.88;;;7.38;;
39442;SDS011;25147;52.142;9.960;2023-06-10T13:33:50;9.75;;;6.80;;
39442;SDS011;25147;52.142;9.960;2023-06-10T13:36:17;7.22;;;6.55;;
39442;SDS011;25147;52.142;9.960;2023-06-10T13:38:44;7.95;;;6.68;;
39442;SDS011;25147;52.142;9.960;2023-06-10T13:41:12;8.30;;;6.65;;
39442;SDS011;25147;52.142;9.960;2023-06-10T13:43:40;9.15;;;6.22;;
39442;SDS011;25147;52.142;9.960;2023-06-10T13:46:08;7.15;;;6.45;;
39442;SDS011;25147;52.142;9.960;2023-06-10T13:48:35;7.05;;;6.45;;
39442;SDS011;25147;52.142;9.960;2023-06-10T13:51:03;8.68;;;6.35;;
39442;SDS011;25147;52.142;9.960;2023-06-10T13:53:30;7.38;;;6.68;;
39442;SDS011;25147;52.142;9.960;2023-06-10T13:55:57;8.48;;;7.60;;
39442;SDS011;25147;52.142;9.960;2023-06-10T13:58:24;7.40;;;6.75;;
39442;SDS011;25147;52.142;9.960;2023-06-10T14:00:52;9.57;;;7.35;;
39442;SDS011;25147;52.142;9.960;2023-06-10T14:03:21;7.50;;;6.43;;
39442;SDS011;25147;52.142;9.960;2023-06-10T14:05:48;7.68;;;7.00;;
39442;SDS011;25147;52.142;9.960;2023-06-10T14:08:15;10.07;;;6.57;;
39442;SDS011;25147;52.142;9.960;2023-06-10T14:10:42;8.52;;;6.70;;
39442;SDS011;25147;52.142;9.960;2023-06-10T14:13:09;10.48;;;7.10;;
39442;SDS011;25147;52.142;9.960;2023-06-10T14:15:36;8.32;;;6.80;;
39442;SDS011;25147;52.142;9.960;2023-06-10T14:18:05;9.10;;;7.00;;
39442;SDS011;25147;52.142;9.960;2023-06-10T14:20:33;7.53;;;6.45;;
39442;SDS011;25147;52.142;9.960;2023-06-10T14:23:05;7.13;;;6.40;;
39442;SDS011;25147;52.142;9.960;2023-06-10T14:25:32;8.05;;;6.65;;
39442;SDS011;25147;52.142;9.960;2023-06-10T14:27:59;8.20;;;6.60;;
39442;SDS011;25147;52.142;9.960;2023-06-10T14:30:26;6.93;;;6.22;;
39442;SDS011;25147;52.142;9.960;2023-06-10T14:32:53;7.32;;;6.40;;
39442;SDS011;25147;52.142;9.960;2023-06-10T14:35:20;9.32;;;6.72;;
39442;SDS011;25147;52.142;9.960;2023-06-10T14:37:48;10.23;;;6.38;;
39442;SDS011;25147;52.142;9.960;2023-06-10T14:40:15;7.30;;;6.43;;
39442;SDS011;25147;52.142;9.960;2023-06-10T14:42:42;6.50;;;5.90;;
39442;SDS011;25147;52.142;9.960;2023-06-10T14:45:09;8.50;;;6.25;;
39442;SDS011;25147;52.142;9.960;2023-06-10T14:47:36;8.15;;;6.75;;
39442;SDS011;25147;52.142;9.960;2023-06-10T14:50:03;7.45;;;6.75;;
39442;SDS011;25147;52.142;9.960;2023-06-10T14:52:30;8.82;;;6.20;;